Time;durP1;ratioP1;P1;durP2;ratioP2;P2;SDS_P1;SDS_P2;PMS_P1;PMS_P2;Temp;Humidity;BMP_temperature;BMP_pressure;BME280_temperature;BME280_humidity;BME280_pressure;Samples;Min_cycle;Max_cycle;Signal;HPM_P1;HPM_P2
2023/02/02 00:27:49;;;;;;;1.67;0.38;;;4.00;99.90;;;;;;5938474;23;20463;31
2023/02/02 01:03:04;;;;;;;2.13;0.60;;;4.10;99.90;;;;;;5742389;23;20035;31
2023/02/02 01:16:25;;;;;;;1.33;0.28;;;4.20;99.90;;;;;;2356933;23;20364;-78
2023/02/02 01:18:54;;;;;;;1.70;0.30;;;4.30;99.90;;;;;;5592183;24;20030;-79
2023/02/02 01:24:52;;;;;;;2.55;0.30;;;4.30;99.90;;;;;;5799148;23;20129;-78
2023/02/02 01:27:22;;;;;;;1.85;0.20;;;4.30;99.90;;;;;;4973316;24;20031;-78
2023/02/02 01:36:49;;;;;;;1.00;0.30;;;4.60;99.90;;;;;;5205625;24;20083;-79
2023/02/02 01:39:22;;;;;;;1.80;0.45;;;4.50;99.90;;;;;;5014070;24;20072;-78
2023/02/02 01:42:23;;;;;;;1.63;0.20;;;4.40;99.90;;;;;;5134856;24;20068;-78
2023/02/02 01:45:24;;;;;;;0.60;0.10;;;4.40;99.90;;;;;;4821430;29;20074;-78
2023/02/02 01:47:58;;;;;;;0.50;0.10;;;4.40;99.90;;;;;;5221719;24;20060;-78
2023/02/02 01:51:18;;;;;;;1.60;0.10;;;4.40;99.90;;;;;;4842895;29;20041;-78
2023/02/02 01:53:54;;;;;;;1.50;0.20;;;3.80;99.90;;;;;;4830661;29;20073;-78
2023/02/02 02:00:26;;;;;;;1.50;0.10;;;4.10;99.90;;;;;;4864144;24;20067;-78
2023/02/02 02:03:01;;;;;;;0.40;0.10;;;4.30;99.90;;;;;;4836805;29;20068;-78
2023/02/02 02:05:43;;;;;;;0.73;0.10;;;4.00;99.90;;;;;;4824125;29;20031;-78
2023/02/02 02:09:01;;;;;;;1.48;0.10;;;3.90;99.90;;;;;;5207350;24;20071;-77
2023/02/02 02:12:00;;;;;;;1.30;0.15;;;3.90;99.90;;;;;;4992976;23;20114;31
2023/02/02 02:43:28;;;;;;;0.38;0.20;;;3.60;99.90;;;;;;4196606;23;20392;-80
2023/02/02 02:46:00;;;;;;;0.38;0.10;;;3.60;99.90;;;;;;5231478;24;20227;-78
2023/02/02 02:48:53;;;;;;;1.17;0.20;;;3.60;99.90;;;;;;5051826;24;20054;-77
2023/02/02 02:58:24;;;;;;;2.28;0.20;;;3.60;99.90;;;;;;4989026;24;20045;-78
2023/02/02 03:01:20;;;;;;;1.38;0.25;;;3.50;99.90;;;;;;4952131;24;20087;-78
2023/02/02 03:04:07;;;;;;;3.28;0.60;;;3.60;99.90;;;;;;5416017;24;20033;31
2023/02/02 03:10:29;;;;;;;1.10;0.30;;;3.60;99.90;;;;;;5309675;23;20050;31
2023/02/02 03:13:06;;;;;;;1.52;0.50;;;3.70;99.90;;;;;;4866536;24;20136;-78
2023/02/02 03:15:33;;;;;;;2.75;0.30;;;3.60;99.90;;;;;;4802445;29;20163;-78
2023/02/02 03:18:14;;;;;;;1.50;0.30;;;3.60;99.90;;;;;;4984184;24;20434;-78
2023/02/02 03:20:44;;;;;;;1.88;0.38;;;3.60;99.90;;;;;;4844475;29;20038;-78
2023/02/02 03:23:13;;;;;;;1.90;0.60;;;3.60;99.90;;;;;;4832371;29;20019;-78
2023/02/02 03:26:15;;;;;;;1.30;0.30;;;3.60;99.90;;;;;;5160553;24;20117;31
2023/02/02 03:29:15;;;;;;;2.20;0.30;;;3.60;99.90;;;;;;4852537;29;20092;-78
2023/02/02 03:31:50;;;;;;;5.85;2.10;;;3.50;99.90;;;;;;4834245;29;20094;-78
2023/02/02 03:34:19;;;;;;;3.05;0.70;;;3.60;99.90;;;;;;4838289;29;20062;-78
2023/02/02 03:36:47;;;;;;;2.20;0.82;;;3.50;99.90;;;;;;4836766;29;20046;-78
2023/02/02 03:39:33;;;;;;;0.90;0.40;;;3.50;99.90;;;;;;5012951;23;20043;-78
2023/02/02 03:42:10;;;;;;;2.70;0.60;;;3.50;99.90;;;;;;4966132;24;20036;31
2023/02/02 03:45:19;;;;;;;1.63;0.40;;;3.60;99.90;;;;;;4887092;23;20043;-78
2023/02/02 03:48:07;;;;;;;1.30;0.30;;;3.50;99.90;;;;;;5053143;23;20035;-78
2023/02/02 03:50:43;;;;;;;1.33;0.20;;;3.50;99.90;;;;;;4782351;29;20055;-78
2023/02/02 03:53:20;;;;;;;2.83;0.20;;;3.50;99.90;;;;;;5043858;24;20118;-78
2023/02/02 03:56:36;;;;;;;2.28;0.30;;;3.40;99.90;;;;;;4831053;29;20074;-77
2023/02/02 03:59:06;;;;;;;1.52;0.20;;;3.50;99.90;;;;;;4923919;24;20066;-78
2023/02/02 04:02:01;;;;;;;0.77;0.20;;;3.50;99.90;;;;;;4928786;24;20058;-78
2023/02/02 04:04:33;;;;;;;1.33;0.35;;;3.40;99.90;;;;;;4834352;29;20034;-78
2023/02/02 04:07:04;;;;;;;3.10;0.32;;;3.50;99.90;;;;;;5154841;24;20058;-78
2023/02/02 04:09:34;;;;;;;1.75;0.30;;;3.40;99.90;;;;;;4823324;29;20051;-78
2023/02/02 04:12:47;;;;;;;5.47;1.42;;;3.40;99.90;;;;;;4819994;29;20038;-78
2023/02/02 04:15:30;;;;;;;3.95;1.25;;;3.30;99.90;;;;;;4790779;29;20054;-78
2023/02/02 04:18:02;;;;;;;6.35;3.00;;;3.30;99.90;;;;;;4794472;29;20646;-78
2023/02/02 04:24:01;;;;;;;1.88;0.55;;;3.30;99.90;;;;;;5425264;23;20081;-78
2023/02/02 04:30:12;;;;;;;4.50;0.20;;;3.20;99.90;;;;;;4857518;24;20069;-77
2023/02/02 04:39:54;;;;;;;2.20;0.43;;;3.10;99.90;;;;;;5321097;23;20058;31
2023/02/02 04:46:09;;;;;;;4.28;0.85;;;3.00;99.90;;;;;;4995244;23;20182;-78
2023/02/02 04:49:14;;;;;;;3.13;0.38;;;3.00;99.90;;;;;;5275778;24;20058;-78
2023/02/02 04:51:43;;;;;;;4.03;0.82;;;3.00;99.90;;;;;;4819818;24;20065;-78
2023/02/02 04:54:14;;;;;;;4.00;0.55;;;3.00;99.90;;;;;;5297567;24;20084;-78
2023/02/02 04:56:47;;;;;;;1.60;0.30;;;3.00;99.90;;;;;;5126651;24;20063;-79
2023/02/02 04:59:38;;;;;;;1.20;0.30;;;2.90;99.90;;;;;;4851505;29;20058;-78
2023/02/02 05:02:13;;;;;;;3.22;0.65;;;2.90;99.90;;;;;;4822435;29;20149;-78
2023/02/02 05:04:42;;;;;;;2.33;0.55;;;2.90;99.90;;;;;;4785608;29;20511;-78
2023/02/02 05:07:17;;;;;;;2.00;0.50;;;2.50;99.90;;;;;;4823603;29;20023;-78
2023/02/02 05:16:52;;;;;;;2.70;0.80;;;2.80;99.90;;;;;;1148263;23;21383;31
2023/02/02 05:19:26;;;;;;;2.90;1.23;;;2.80;99.90;;;;;;5416772;24;20033;31
2023/02/02 05:22:41;;;;;;;4.20;0.80;;;3.20;99.90;;;;;;5059855;24;20037;31
2023/02/02 05:25:13;;;;;;;5.72;1.10;;;2.80;99.90;;;;;;4811862;29;20055;-77
2023/02/02 05:27:43;;;;;;;5.28;1.65;;;2.70;99.90;;;;;;4815163;29;20054;-80
2023/02/02 05:30:14;;;;;;;6.60;1.10;;;2.70;99.90;;;;;;4833965;29;20047;-79
2023/02/02 05:32:46;;;;;;;1.58;0.63;;;2.70;99.90;;;;;;4796959;29;20060;-78
2023/02/02 05:35:13;;;;;;;;;;;2.70;99.90;;;;;;4814139;29;20064;-78
2023/02/02 05:37:50;;;;;;;3.13;0.77;;;2.70;99.90;;;;;;4817813;29;19925;-78
2023/02/02 05:40:19;;;;;;;5.38;1.88;;;2.70;99.90;;;;;;4793884;29;20130;-79
2023/02/02 05:42:48;;;;;;;4.93;0.80;;;2.70;99.90;;;;;;4798163;29;20035;-77
2023/02/02 05:45:16;;;;;;;2.22;0.75;;;2.70;99.90;;;;;;4808737;29;20118;-78
2023/02/02 05:47:43;;;;;;;2.83;2.30;;;2.70;99.90;;;;;;4789823;29;20412;-78
2023/02/02 05:50:12;;;;;;;2.45;1.27;;;2.70;99.90;;;;;;4792773;29;20086;-78
2023/02/02 05:52:41;;;;;;;3.75;1.60;;;2.70;99.90;;;;;;4788663;29;20305;-78
2023/02/02 05:55:10;;;;;;;2.95;0.98;;;2.70;99.90;;;;;;4809931;29;20071;-78
2023/02/02 05:57:38;;;;;;;2.92;1.20;;;2.60;99.90;;;;;;4773281;29;20051;-78
2023/02/02 06:00:16;;;;;;;3.25;0.98;;;2.60;99.90;;;;;;4804837;29;20051;-78
2023/02/02 06:02:49;;;;;;;2.13;0.40;;;2.60;99.90;;;;;;4807821;29;20082;-78
2023/02/02 06:05:17;;;;;;;8.05;1.10;;;2.60;99.90;;;;;;4812204;29;20027;-78
2023/02/02 06:07:49;;;;;;;2.08;0.93;;;2.70;99.90;;;;;;4783209;29;20054;-78
2023/02/02 06:10:20;;;;;;;4.68;0.70;;;2.70;99.90;;;;;;4973270;24;20136;-77
2023/02/02 06:17:15;;;;;;;2.45;0.70;;;2.60;99.90;;;;;;4865548;23;20054;31
2023/02/02 06:19:45;;;;;;;1.63;0.43;;;2.70;99.90;;;;;;4804647;29;20297;-78
2023/02/02 06:25:27;;;;;;;4.68;0.82;;;3.40;99.90;;;;;;5519933;23;20024;-78
2023/02/02 06:35:13;;;;;;;2.90;0.45;;;2.60;99.90;;;;;;2816570;23;20057;31
2023/02/02 06:41:24;;;;;;;4.63;0.52;;;2.60;99.90;;;;;;5535451;23;20035;31
2023/02/02 06:44:32;;;;;;;2.35;0.40;;;2.60;99.90;;;;;;5541481;23;20067;31
2023/02/02 06:46:59;;;;;;;3.75;1.05;;;2.60;99.90;;;;;;4819395;29;20169;-80
2023/02/02 06:52:58;;;;;;;2.60;0.90;;;2.60;99.90;;;;;;5939310;23;20043;31
2023/02/02 06:55:37;;;;;;;11.23;2.08;;;2.60;99.90;;;;;;5526327;24;20029;31
2023/02/02 07:01:13;;;;;;;6.60;1.83;;;2.80;99.90;;;;;;5385795;23;20062;-78
2023/02/02 07:03:42;;;;;;;5.38;1.65;;;2.80;99.90;;;;;;4920582;24;20111;-77
2023/02/02 07:06:20;;;;;;;6.03;1.23;;;2.90;99.90;;;;;;4850538;29;20046;-78
2023/02/02 07:08:55;;;;;;;3.92;1.45;;;2.90;99.90;;;;;;4839828;29;20049;-77
2023/02/02 07:11:34;;;;;;;4.88;1.42;;;3.10;99.90;;;;;;4811332;29;20058;-78
2023/02/02 07:14:07;;;;;;;7.03;1.50;;;3.00;99.90;;;;;;4813670;29;20054;-78
2023/02/02 07:16:34;;;;;;;9.05;2.95;;;2.40;99.90;;;;;;4826522;29;20049;-77
2023/02/02 07:19:02;;;;;;;8.80;3.17;;;3.10;99.90;;;;;;4834286;29;20067;-77
2023/02/02 07:21:34;;;;;;;11.27;2.70;;;3.10;99.90;;;;;;4822713;29;20133;-77
2023/02/02 07:24:07;;;;;;;3.42;0.90;;;3.20;99.90;;;;;;4848636;29;20043;-77
2023/02/02 07:27:04;;;;;;;6.10;1.20;;;3.30;99.90;;;;;;5026030;24;20047;31
2023/02/02 07:29:48;;;;;;;2.45;1.00;;;3.30;99.90;;;;;;5110287;24;20042;31
2023/02/02 07:32:50;;;;;;;6.00;0.93;;;3.40;99.90;;;;;;4954306;23;20042;-78
2023/02/02 07:35:47;;;;;;;3.58;0.95;;;3.40;99.90;;;;;;4890543;24;20028;-79
2023/02/02 07:38:29;;;;;;;5.30;1.83;;;3.60;99.90;;;;;;4953794;24;20774;-78
2023/02/02 07:45:11;;;;;;;3.43;1.10;;;3.70;99.90;;;;;;5795847;24;20157;31
2023/02/02 07:48:01;;;;;;;2.65;0.65;;;3.80;99.90;;;;;;5045356;23;20038;-78
2023/02/02 07:50:37;;;;;;;3.90;0.45;;;3.80;99.90;;;;;;4803428;29;20084;-78
2023/02/02 07:53:05;;;;;;;2.83;0.60;;;3.80;99.90;;;;;;4799954;29;20047;-78
2023/02/02 07:56:12;;;;;;;3.42;0.47;;;3.90;99.90;;;;;;5282852;24;20050;-78
2023/02/02 07:59:08;;;;;;;3.80;0.63;;;4.10;99.90;;;;;;5186570;24;20062;-77
2023/02/02 08:01:59;;;;;;;1.85;0.50;;;5.00;99.90;;;;;;4815989;29;20069;-78
2023/02/02 08:05:24;;;;;;;6.22;1.08;;;4.00;99.90;;;;;;5067900;24;20102;-78
2023/02/02 08:08:07;;;;;;;2.03;0.70;;;4.00;99.90;;;;;;5037513;23;20081;-80
2023/02/02 08:10:35;;;;;;;4.28;0.60;;;4.10;99.90;;;;;;4884139;24;20070;-77
2023/02/02 08:13:12;;;;;;;1.70;0.68;;;4.20;99.90;;;;;;4839838;24;20121;-77
2023/02/02 08:15:40;;;;;;;3.35;0.55;;;4.60;99.90;;;;;;4806047;29;20098;-77
2023/02/02 08:18:14;;;;;;;2.22;0.43;;;4.40;99.90;;;;;;4818487;29;20111;-77
2023/02/02 08:20:44;;;;;;;4.05;0.40;;;4.40;99.90;;;;;;4785242;29;20125;-77
2023/02/02 08:23:22;;;;;;;3.53;0.57;;;4.50;99.90;;;;;;4807714;29;20078;-77
2023/02/02 08:26:38;;;;;;;3.08;0.47;;;4.60;99.90;;;;;;4826597;29;20046;-77
2023/02/02 08:29:07;;;;;;;1.75;0.30;;;4.60;99.90;;;;;;4790001;29;20054;-78
2023/02/02 08:31:42;;;;;;;1.10;0.40;;;4.70;99.90;;;;;;4782584;29;20085;-78
2023/02/02 08:34:11;;;;;;;4.68;0.70;;;4.70;99.90;;;;;;4764802;29;20063;-78
2023/02/02 08:36:44;;;;;;;1.50;0.30;;;4.80;99.90;;;;;;4761272;30;20075;-77
2023/02/02 08:39:13;;;;;;;2.55;0.73;;;4.90;99.90;;;;;;4784241;29;20051;-79
2023/02/02 08:41:44;;;;;;;3.65;0.60;;;5.00;99.50;;;;;;4859677;24;20058;-78
2023/02/02 08:44:16;;;;;;;3.15;0.82;;;4.80;99.50;;;;;;4805199;29;20055;-78
2023/02/02 08:46:46;;;;;;;4.00;0.95;;;6.20;98.90;;;;;;4818392;29;20058;-78
2023/02/02 08:49:37;;;;;;;3.72;0.60;;;5.50;98.50;;;;;;4791376;29;20052;-78
2023/02/02 08:52:04;;;;;;;3.33;1.33;;;5.40;97.20;;;;;;4777483;30;20123;-77
2023/02/02 08:54:40;;;;;;;8.40;3.75;;;5.80;97.00;;;;;;4779547;30;20059;-78
2023/02/02 08:57:08;;;;;;;103.82;37.20;;;5.90;95.40;;;;;;4781196;29;20031;-78
2023/02/02 08:59:55;;;;;;;22.02;6.88;;;6.20;95.50;;;;;;4761559;30;20036;-78
2023/02/02 09:02:23;;;;;;;54.08;22.13;;;6.20;93.40;;;;;;4760182;30;20119;-78
2023/02/02 09:04:59;;;;;;;31.83;14.82;;;6.30;93.60;;;;;;4772816;30;20044;-79
2023/02/02 09:07:28;;;;;;;4.65;2.05;;;6.00;93.20;;;;;;4743761;30;20468;-79
2023/02/02 09:09:57;;;;;;;2.80;0.60;;;5.90;92.90;;;;;;4749699;30;20124;-79
2023/02/02 09:12:43;;;;;;;1.58;0.52;;;5.90;93.80;;;;;;4869266;24;20127;-78
2023/02/02 09:15:18;;;;;;;1.83;0.40;;;5.80;93.70;;;;;;4817233;29;20077;-78
2023/02/02 09:17:46;;;;;;;1.83;0.47;;;5.70;92.90;;;;;;4895077;24;20072;-78
2023/02/02 09:20:29;;;;;;;2.72;0.88;;;5.70;93.20;;;;;;4825088;29;20080;-78
2023/02/02 09:22:57;;;;;;;1.40;0.20;;;5.70;93.20;;;;;;4802206;29;20061;-78
2023/02/02 09:25:50;;;;;;;2.80;0.93;;;5.80;93.20;;;;;;4798688;30;20074;-78
2023/02/02 09:28:42;;;;;;;1.80;0.57;;;5.70;92.50;;;;;;4747116;30;20083;-78
2023/02/02 09:31:16;;;;;;;3.58;1.90;;;5.70;93.20;;;;;;4761751;30;20055;-78
2023/02/02 09:33:53;;;;;;;3.60;1.65;;;5.80;92.70;;;;;;4756542;30;20060;-78
2023/02/02 09:36:32;;;;;;;3.97;0.90;;;5.80;92.40;;;;;;4760964;30;20197;-78
2023/02/02 09:39:00;;;;;;;2.28;0.32;;;5.10;92.00;;;;;;4749100;30;20064;-78
2023/02/02 09:41:50;;;;;;;7.50;0.98;;;5.90;92.70;;;;;;4761274;30;20044;-78
2023/02/02 09:45:05;;;;;;;3.13;0.63;;;5.80;92.00;;;;;;4790927;29;20082;-78
2023/02/02 09:47:46;;;;;;;4.05;1.15;;;6.00;91.90;;;;;;4778528;30;20076;-78
2023/02/02 09:50:32;;;;;;;3.72;0.65;;;6.10;91.40;;;;;;4777109;30;20119;-78
2023/02/02 09:53:12;;;;;;;4.35;0.60;;;6.20;91.10;;;;;;4794999;30;20059;-78
2023/02/02 09:56:00;;;;;;;6.57;1.17;;;6.40;90.60;;;;;;4796965;29;20060;-79
2023/02/02 09:58:52;;;;;;;4.13;0.40;;;6.80;90.00;;;;;;4790668;29;20246;-78
2023/02/02 10:01:33;;;;;;;9.48;4.70;;;6.60;90.00;;;;;;4793019;30;20111;-78
2023/02/02 10:05:10;;;;;;;5.93;2.55;;;6.80;89.10;;;;;;4707082;30;20038;-78
2023/02/02 10:07:48;;;;;;;4.55;2.20;;;6.70;88.10;;;;;;4714188;30;20045;-78
2023/02/02 10:11:05;;;;;;;4.35;2.63;;;6.60;88.40;;;;;;4722646;30;20193;-78
2023/02/02 10:13:49;;;;;;;4.78;1.83;;;6.50;88.30;;;;;;4697493;30;20045;-78
2023/02/02 10:16:47;;;;;;;3.38;0.77;;;6.40;88.50;;;;;;4699116;30;20061;-78
2023/02/02 10:19:19;;;;;;;1.90;0.30;;;6.50;88.30;;;;;;4765365;24;20142;-78
2023/02/02 10:22:32;;;;;;;6.15;0.70;;;6.70;87.30;;;;;;4803270;29;20138;-78
2023/02/02 10:25:01;;;;;;;3.25;0.20;;;6.80;87.30;;;;;;4742751;30;20070;-78
2023/02/02 10:27:38;;;;;;;1.60;0.20;;;6.70;87.10;;;;;;4733717;30;20052;-78
2023/02/02 10:30:52;;;;;;;8.45;2.05;;;7.60;88.10;;;;;;4742567;30;20040;-78
2023/02/02 10:33:38;;;;;;;4.78;0.80;;;6.60;87.50;;;;;;4753247;30;20074;-79
2023/02/02 10:36:46;;;;;;;3.45;0.93;;;6.70;87.10;;;;;;4750766;30;20126;-78
2023/02/02 10:39:51;;;;;;;6.95;1.30;;;6.70;86.00;;;;;;4827084;24;20084;-78
2023/02/02 10:43:44;;;;;;;7.85;1.80;;;6.60;87.60;;;;;;4809648;29;20127;-77
2023/02/02 10:45:47;;;;;;;2.35;0.40;;;6.70;87.30;;;;;;4820201;29;20046;-77
2023/02/02 10:48:34;;;;;;;3.15;0.82;;;6.50;88.00;;;;;;4821417;29;20047;-77
2023/02/02 10:51:13;;;;;;;4.63;0.50;;;6.40;88.20;;;;;;4811579;29;20050;-78
2023/02/02 10:53:45;;;;;;;34.13;15.82;;;6.50;88.20;;;;;;4800387;29;20054;-77
2023/02/02 10:56:37;;;;;;;52.00;26.25;;;6.70;87.00;;;;;;4796707;29;20126;-78
2023/02/02 10:59:26;;;;;;;41.03;20.02;;;6.60;87.00;;;;;;4806820;29;20083;-78
2023/02/02 11:01:57;;;;;;;23.02;14.52;;;6.80;86.80;;;;;;4814442;29;20051;-78
2023/02/02 11:08:27;;;;;;;8.70;3.60;;;7.10;84.60;;;;;;4778200;30;20028;-77
2023/02/02 11:11:19;;;;;;;2.47;0.88;;;7.20;85.60;;;;;;4780591;30;20067;-78
2023/02/02 11:14:20;;;;;;;3.67;1.27;;;7.20;84.30;;;;;;4781179;30;20063;-78
2023/02/02 11:17:15;;;;;;;6.05;1.23;;;7.40;84.30;;;;;;4750113;30;20094;-78
2023/02/02 11:20:01;;;;;;;5.22;0.60;;;7.40;84.10;;;;;;4738329;30;20127;-78
2023/02/02 11:22:37;;;;;;;5.68;0.70;;;7.50;83.90;;;;;;4729497;30;20068;-78
2023/02/02 11:25:57;;;;;;;4.07;0.60;;;7.50;83.30;;;;;;4736031;30;20056;-78
2023/02/02 11:29:03;;;;;;;5.18;0.75;;;7.90;83.70;;;;;;4724343;30;20092;-78
2023/02/02 11:31:40;;;;;;;3.30;0.30;;;8.00;83.90;;;;;;4692263;30;20050;-78
2023/02/02 11:34:33;;;;;;;2.42;0.50;;;7.70;81.90;;;;;;4704168;30;20532;-78
2023/02/02 11:37:20;;;;;;;6.57;0.70;;;7.60;82.00;;;;;;4726599;30;20040;-78
2023/02/02 11:40:27;;;;;;;3.47;0.30;;;7.70;82.50;;;;;;4712889;30;20040;-78
2023/02/02 11:43:46;;;;;;;2.72;0.52;;;7.70;82.00;;;;;;4725832;30;20076;-78
2023/02/02 11:47:32;;;;;;;5.15;0.57;;;7.90;83.30;;;;;;4884695;24;20072;-79
2023/02/02 11:50:04;;;;;;;7.43;0.50;;;7.70;84.50;;;;;;4826907;29;20050;-78
2023/02/02 11:52:39;;;;;;;2.72;0.20;;;7.60;84.70;;;;;;4806811;29;20057;-79
2023/02/02 11:55:33;;;;;;;9.40;1.35;;;7.60;84.50;;;;;;4829853;29;20043;-78
2023/02/02 11:58:26;;;;;;;4.25;1.48;;;7.80;83.20;;;;;;4830580;29;20085;-78
2023/02/02 12:01:05;;;;;;;73.60;34.25;;;8.00;84.30;;;;;;4844755;29;20703;-78
2023/02/02 12:04:01;;;;;;;20.83;7.68;;;7.90;82.70;;;;;;4832537;29;20070;-78
2023/02/02 12:06:48;;;;;;;25.33;16.20;;;7.90;82.50;;;;;;4823041;29;20041;-78
2023/02/02 12:09:30;;;;;;;6.53;4.10;;;8.00;82.40;;;;;;4805867;29;20187;-78
2023/02/02 12:12:55;;;;;;;5.75;0.85;;;7.90;82.10;;;;;;4846193;29;20050;-78
2023/02/02 12:16:08;;;;;;;3.67;0.40;;;7.90;82.50;;;;;;4872501;24;20031;-78
2023/02/02 12:19:25;;;;;;;2.88;0.40;;;7.80;83.10;;;;;;4795705;29;20052;-78
2023/02/02 12:22:09;;;;;;;2.78;0.93;;;7.50;83.30;;;;;;4789922;29;20082;-78
2023/02/02 12:25:01;;;;;;;4.55;0.30;;;7.50;84.00;;;;;;4785937;29;20047;-78
2023/02/02 12:27:55;;;;;;;1.90;0.40;;;7.40;84.90;;;;;;4768326;29;20043;-78
2023/02/02 12:31:26;;;;;;;4.22;0.90;;;7.20;85.00;;;;;;4771267;30;20086;-78
2023/02/02 12:34:42;;;;;;;7.20;1.42;;;7.00;85.60;;;;;;4833218;29;20065;-78
2023/02/02 12:37:53;;;;;;;4.85;0.50;;;6.90;86.70;;;;;;4807471;29;20116;-78
2023/02/02 12:40:47;;;;;;;9.38;3.47;;;6.80;86.50;;;;;;4797682;29;20059;-78
2023/02/02 12:43:28;;;;;;;6.18;1.88;;;6.70;87.30;;;;;;4810301;29;20046;-78
2023/02/02 12:46:37;;;;;;;23.65;10.85;;;6.70;87.20;;;;;;4800764;29;20060;-78
2023/02/02 12:49:44;;;;;;;4.55;1.70;;;6.60;87.80;;;;;;4805606;29;20051;-78
2023/02/02 12:52:43;;;;;;;22.90;8.13;;;6.90;87.90;;;;;;4909285;24;20054;31
2023/02/02 12:55:27;;;;;;;17.47;6.93;;;6.60;88.70;;;;;;4877976;24;20057;-78
2023/02/02 12:58:15;;;;;;;11.43;6.72;;;6.60;87.40;;;;;;4847501;29;20377;-77
2023/02/02 13:01:23;;;;;;;14.77;6.22;;;6.50;87.40;;;;;;4787540;29;20070;-79
2023/02/02 13:04:23;;;;;;;5.53;1.00;;;6.70;87.70;;;;;;4841166;29;20058;-79
2023/02/02 13:07:14;;;;;;;5.43;1.65;;;6.50;87.50;;;;;;4803510;24;20076;-78
2023/02/02 13:13:40;;;;;;;7.70;2.53;;;6.40;88.50;;;;;;4790376;29;20035;-78
2023/02/02 13:16:14;;;;;;;6.85;1.27;;;6.40;89.30;;;;;;4791017;29;20054;-78
2023/02/02 13:18:51;;;;;;;;;;;6.30;89.00;;;;;;4966777;24;20051;-78
2023/02/02 13:21:43;;;;;;;2.38;0.70;;;6.30;89.70;;;;;;4891236;24;19924;-78
2023/02/02 13:24:19;;;;;;;4.07;0.85;;;6.30;89.00;;;;;;4833506;29;20042;-78
2023/02/02 13:27:05;;;;;;;4.13;0.40;;;5.60;88.20;;;;;;5104388;24;20028;31
2023/02/02 13:29:44;;;;;;;2.78;0.50;;;6.30;89.20;;;;;;4777720;30;20134;-78
2023/02/02 13:32:45;;;;;;;6.10;1.60;;;6.20;89.10;;;;;;5015767;24;20029;-79
2023/02/02 13:36:17;;;;;;;7.97;1.75;;;6.20;89.70;;;;;;4899365;24;20058;-78
2023/02/02 13:38:48;;;;;;;7.15;2.90;;;5.60;89.40;;;;;;4778650;30;20092;-78
2023/02/02 13:41:17;;;;;;;6.40;1.55;;;6.20;89.10;;;;;;4793465;29;20382;-78
2023/02/02 13:44:34;;;;;;;9.48;2.15;;;6.20;89.70;;;;;;4771741;29;20073;-78
2023/02/02 13:47:22;;;;;;;7.60;1.58;;;6.20;90.00;;;;;;4767312;30;20063;-78
2023/02/02 13:50:11;;;;;;;2.60;0.77;;;6.20;90.20;;;;;;4792577;29;20051;-79
2023/02/02 13:53:02;;;;;;;4.50;0.60;;;6.10;90.00;;;;;;4783582;30;20069;-78
2023/02/02 13:55:59;;;;;;;2.90;0.75;;;6.10;90.00;;;;;;4787795;30;20115;-78
2023/02/02 13:58:55;;;;;;;4.20;0.68;;;6.10;90.10;;;;;;4819227;29;20093;-78
2023/02/02 14:01:28;;;;;;;3.20;1.20;;;6.10;90.30;;;;;;4853236;24;20051;-78
2023/02/02 14:04:29;;;;;;;2.95;0.50;;;6.10;90.40;;;;;;4816466;29;20106;-78
2023/02/02 14:07:42;;;;;;;5.55;1.10;;;6.10;90.10;;;;;;4821216;29;20114;-78
2023/02/02 14:14:36;;;;;;;3.30;0.88;;;7.20;90.80;;;;;;4833481;29;20083;-78
2023/02/02 14:17:57;;;;;;;4.80;0.77;;;6.10;90.20;;;;;;5331222;24;21025;31
2023/02/02 14:20:54;;;;;;;2.55;0.43;;;6.30;90.70;;;;;;4798864;29;20055;-79
2023/02/02 14:24:13;;;;;;;3.63;0.90;;;6.50;90.90;;;;;;4801200;29;20043;-78
2023/02/02 14:27:08;;;;;;;21.00;5.82;;;6.00;90.40;;;;;;4790066;30;20075;-79
2023/02/02 14:30:31;;;;;;;8.20;2.53;;;6.10;90.70;;;;;;4774898;29;20082;-79
2023/02/02 14:33:22;;;;;;;2.78;0.50;;;6.10;90.70;;;;;;4824510;29;20078;-79
2023/02/02 14:36:16;;;;;;;3.35;0.85;;;6.10;90.60;;;;;;4797634;29;20030;-79
2023/02/02 14:39:03;;;;;;;6.57;1.92;;;6.10;90.50;;;;;;4933302;24;20054;-78
2023/02/02 14:45:13;;;;;;;7.43;2.67;;;6.00;90.70;;;;;;5147383;23;20069;-78
2023/02/02 14:48:16;;;;;;;12.63;4.68;;;6.00;90.60;;;;;;4821667;29;20030;-78
2023/02/02 14:51:31;;;;;;;8.18;1.90;;;6.00;91.00;;;;;;4995989;24;20550;-79
2023/02/02 14:54:16;;;;;;;7.30;2.10;;;6.10;91.10;;;;;;4818435;29;20059;-79
2023/02/02 14:57:14;;;;;;;6.28;2.50;;;5.50;90.80;;;;;;4928479;24;20030;31
2023/02/02 15:00:20;;;;;;;8.13;1.20;;;5.90;91.20;;;;;;5051870;24;20048;-80
2023/02/02 15:03:52;;;;;;;5.35;2.30;;;6.00;90.90;;;;;;4975175;24;20043;-78
2023/02/02 15:06:43;;;;;;;6.00;1.85;;;5.90;90.60;;;;;;4796843;29;20058;-79
2023/02/02 15:10:15;;;;;;;8.13;1.73;;;5.90;90.70;;;;;;4812956;29;20047;-78
2023/02/02 15:13:36;;;;;;;4.28;1.60;;;5.90;90.50;;;;;;5213777;24;20063;-78
2023/02/02 15:16:29;;;;;;;4.93;1.73;;;5.80;90.90;;;;;;4860268;24;20121;-78
2023/02/02 15:21:52;;;;;;;9.85;1.92;;;5.80;91.40;;;;;;4810532;29;20248;-78
2023/02/02 15:27:37;;;;;;;10.80;2.67;;;5.70;91.30;;;;;;5210354;24;20062;-80
2023/02/02 15:31:22;;;;;;;9.88;4.22;;;5.70;91.50;;;;;;4823691;29;20095;-78
2023/02/02 15:34:27;;;;;;;20.27;12.88;;;5.70;91.60;;;;;;5125216;24;20070;-78
2023/02/02 15:36:58;;;;;;;5.25;2.10;;;5.70;91.60;;;;;;4831008;29;20046;-78
2023/02/02 15:39:54;;;;;;;9.13;3.40;;;5.70;91.90;;;;;;4856639;24;20127;-78
2023/02/02 15:53:43;;;;;;;4.53;2.72;;;5.60;92.10;;;;;;5048788;27;3395862;-78
2023/02/02 15:56:55;;;;;;;6.20;2.45;;;5.50;92.90;;;;;;5472818;22;20056;31
2023/02/02 15:59:44;;;;;;;10.48;3.65;;;5.30;93.20;;;;;;5211228;22;20064;-78
2023/02/02 16:06:14;;;;;;;4.55;1.55;;;5.40;93.40;;;;;;5259440;23;20129;-78
2023/02/02 16:12:33;;;;;;;2.40;0.80;;;5.20;93.70;;;;;;5263482;23;20083;-78
2023/02/02 16:15:17;;;;;;;4.38;1.55;;;5.10;93.90;;;;;;5103866;23;20304;-78
2023/02/02 16:21:42;;;;;;;3.25;0.98;;;5.10;94.10;;;;;;1989555;23;20427;-77
2023/02/02 16:51:41;;;;;;;4.78;2.30;;;4.90;94.90;;;;;;5364031;24;20082;-78
2023/02/02 16:54:32;;;;;;;7.30;3.95;;;4.90;94.80;;;;;;5289828;24;20101;31
2023/02/02 17:15:16;;;;;;;6.00;1.83;;;4.80;95.50;;;;;;4488383;24;20070;-80
2023/02/02 17:28:43;;;;;;;13.30;4.35;;;4.70;95.60;;;;;;3696174;23;20551;31
2023/02/02 17:31:27;;;;;;;34.15;11.18;;;4.70;95.50;;;;;;4873612;29;20034;-79
2023/02/02 17:34:23;;;;;;;12.75;4.57;;;4.70;95.60;;;;;;5133824;24;20053;31
2023/02/02 17:37:46;;;;;;;12.27;4.63;;;4.70;95.40;;;;;;2134164;23;21226;31
2023/02/02 17:40:50;;;;;;;17.85;6.03;;;4.70;95.40;;;;;;5173445;23;20060;-78
2023/02/02 17:46:23;;;;;;;10.00;3.63;;;4.70;95.50;;;;;;5367011;23;20116;-78
2023/02/02 17:48:58;;;;;;;11.80;5.15;;;4.70;95.60;;;;;;5080048;24;20068;-78
2023/02/02 17:51:42;;;;;;;8.85;2.42;;;4.60;95.70;;;;;;4894847;29;20069;-78
2023/02/02 17:57:26;;;;;;;7.93;4.72;;;4.60;95.80;;;;;;5704021;23;20044;-78
2023/02/02 18:04:09;;;;;;;6.43;2.25;;;4.50;96.20;;;;;;5026564;23;19941;-78
2023/02/02 18:06:55;;;;;;;5.05;2.53;;;4.30;96.40;;;;;;5049575;23;20052;-78
2023/02/02 18:10:10;;;;;;;4.80;1.85;;;4.40;96.40;;;;;;5161195;23;20043;-78
2023/02/02 18:15:37;;;;;;;5.18;2.33;;;4.50;96.40;;;;;;4902129;29;20100;-78
2023/02/02 18:18:08;;;;;;;5.95;2.17;;;4.40;96.40;;;;;;4905793;29;20045;-77
2023/02/02 18:20:45;;;;;;;5.28;2.60;;;4.50;96.40;;;;;;4896174;29;20021;-78
2023/02/02 18:23:23;;;;;;;4.38;2.20;;;4.40;96.60;;;;;;4905884;29;20140;-78
2023/02/02 18:30:14;;;;;;;8.82;2.97;;;4.30;96.80;;;;;;5133440;23;20039;-77
2023/02/02 18:36:54;;;;;;;5.90;2.40;;;4.30;96.90;;;;;;5395939;23;20042;-78
2023/02/02 18:43:33;;;;;;;6.07;1.38;;;4.40;96.90;;;;;;5073241;23;20107;-79
2023/02/02 18:54:19;;;;;;;4.57;1.92;;;4.30;97.40;;;;;;5175857;23;20217;-78
2023/02/02 19:13:56;;;;;;;6.45;2.13;;;4.20;98.30;;;;;;5391575;23;20080;-79
2023/02/02 19:16:33;;;;;;;5.65;2.50;;;4.10;98.20;;;;;;5270983;23;20067;-77
2023/02/02 19:26:20;;;;;;;9.02;3.97;;;3.60;98.60;;;;;;5014976;23;20099;-78
2023/02/02 19:29:47;;;;;;;10.38;5.13;;;3.90;98.80;;;;;;4949266;29;20087;-78
2023/02/02 19:36:01;;;;;;;8.77;2.30;;;4.10;98.90;;;;;;5093296;23;20054;31
2023/02/02 19:38:41;;;;;;;5.35;1.80;;;4.20;98.80;;;;;;4839817;29;20041;-79
2023/02/02 19:41:24;;;;;;;5.55;2.03;;;4.20;98.40;;;;;;4864323;29;20082;-79
2023/02/02 19:47:15;;;;;;;4.82;1.50;;;4.20;98.60;;;;;;5562643;23;21044;-77
2023/02/02 20:01:07;;;;;;;5.50;2.33;;;4.10;99.40;;;;;;5499153;23;20076;31
2023/02/02 20:08:03;;;;;;;4.32;1.65;;;4.10;99.60;;;;;;5498758;23;20035;-78
2023/02/02 20:11:34;;;;;;;5.95;2.08;;;4.10;99.90;;;;;;5134575;23;20098;-78
2023/02/02 20:22:02;;;;;;;9.68;2.92;;;4.00;99.90;;;;;;5539139;23;20991;-79
2023/02/02 20:31:03;;;;;;;9.50;3.20;;;3.90;99.90;;;;;;3975553;23;20133;31
2023/02/02 20:47:38;;;;;;;4.57;1.73;;;3.90;99.90;;;;;;5177158;23;20335;31
2023/02/02 20:50:32;;;;;;;7.68;2.20;;;3.90;99.90;;;;;;4842815;29;20054;-78
2023/02/02 20:53:15;;;;;;;5.53;1.65;;;3.90;99.90;;;;;;4844483;29;20774;-78
2023/02/02 20:56:14;;;;;;;5.22;2.38;;;3.90;99.90;;;;;;5363522;24;20102;31
2023/02/02 20:59:13;;;;;;;5.97;1.80;;;3.90;99.90;;;;;;5317027;23;20146;-80
2023/02/02 21:02:04;;;;;;;9.15;1.70;;;3.80;99.90;;;;;;5006347;23;20050;-80